Pineville, MO (64856)

11:54 AM CDT on September 04, 2015 (GMT -0500)
Wentworth Division | | Change Station
CLOSE
Current Station
Personal Weather Station
Location: Bella Vista, AR
Elevation: 1247 ft
Nearby Weather Stations

Elev 1247 ft 36.45 °N, 94.25 °W | Updated 27 seconds ago

Clear
Clear
88.2 °F
Feels Like 93 °F
N
2.9
Wind Variable Wind from SE
Gusts 4.9 mph

Today
High -- | Low -- °F
--% Chance of Precip.
Yesterday
High -- | Low -- °F
Precip. -- in
6:50 AM 7:41 PM
Waning Gibbous, 58% visible
Pressure 30.07 in
Visibility 10.0 miles
Clouds Clear
Heat Index 93 °F
Dew Point 69 °F
Humidity 53%
Rainfall 0.00 in
Snow Depth Not available.
UV 5.0 out of 12
Pollen 11.10 out of 12
Air Quality Not available.
Flu Activity Not available.
METAR KVBT 041635Z AUTO 17006KT 10SM CLR 30/20 A3007 RMK AO1
Pressure 30.07 in
Visibility 10.0 miles
Clouds Clear
Heat Index 93 °F
Dew Point 69 °F
Humidity 53%
Rainfall 0.00 in
Snow Depth Not available.
UV 5.0 out of 12
Pollen 11.10 out of 12
Air Quality Not available.
Flu Activity Not available.
METAR KVBT 041635Z AUTO 17006KT 10SM CLR 30/20 A3007 RMK AO1

10-Day Weather Forecast

×

Almanac

Astronomy

Sep. 04, 2015 Rise Set
Actual Time
Civil Twilight
Nautical Twilight
Astronomical Twilight
Moon
Length of Visible Light
Length of Day
Tomorrow will be .
, % of the Moon is Illuminated

Today's Extremes

State Highs State Lows

Community

WunderPhotos

Upload Photos

1,852,226 photos uploaded!

WunderBlogs® & News

Nearby

Air Quality

  Air Quality AQ Index Pollutant
Not available.

Snow Depth

Station Depth Elevation

Earthquake Activity

City Distance Mag. Time & Date
Minimum magnitude displayed is 2.5.

Coastal Water Temperatures

Place Temperature

Stations

Nearby Weather Stations

Station Location Temp. Windchill Dew Point Humidity Wind Precip. Elev Updated Type